sensor_id;sensor_type;location;lat;lon;timestamp;P1;durP1;ratioP1;P2;durP2;ratioP2
59659;SDS011;45534;52.690;6.268;2023-02-13T00:01:58;12.23;;;8.07;;
59659;SDS011;45534;52.690;6.268;2023-02-13T00:04:24;27.90;;;13.15;;
59659;SDS011;45534;52.690;6.268;2023-02-13T00:06:50;11.43;;;6.70;;
59659;SDS011;45534;52.690;6.268;2023-02-13T00:09:16;21.00;;;14.15;;
59659;SDS011;45534;52.690;6.268;2023-02-13T00:11:41;20.90;;;11.60;;
59659;SDS011;45534;52.690;6.268;2023-02-13T00:14:07;20.08;;;11.55;;
59659;SDS011;45534;52.690;6.268;2023-02-13T00:16:32;16.40;;;10.02;;
59659;SDS011;45534;52.690;6.268;2023-02-13T00:18:58;19.40;;;12.38;;
59659;SDS011;45534;52.690;6.268;2023-02-13T00:21:24;5.72;;;5.03;;
59659;SDS011;45534;52.690;6.268;2023-02-13T00:23:49;19.48;;;12.27;;
59659;SDS011;45534;52.690;6.268;2023-02-13T00:26:15;16.88;;;10.43;;
59659;SDS011;45534;52.690;6.268;2023-02-13T00:28:42;16.13;;;10.32;;
59659;SDS011;45534;52.690;6.268;2023-02-13T00:31:09;12.52;;;9.65;;
59659;SDS011;45534;52.690;6.268;2023-02-13T00:33:37;28.90;;;12.85;;
59659;SDS011;45534;52.690;6.268;2023-02-13T00:36:07;26.42;;;13.82;;
59659;SDS011;45534;52.690;6.268;2023-02-13T00:38:36;27.65;;;12.52;;
59659;SDS011;45534;52.690;6.268;2023-02-13T00:41:03;27.92;;;12.90;;
59659;SDS011;45534;52.690;6.268;2023-02-13T00:43:29;26.52;;;14.75;;
59659;SDS011;45534;52.690;6.268;2023-02-13T00:45:55;27.65;;;14.77;;
59659;SDS011;45534;52.690;6.268;2023-02-13T00:48:22;30.30;;;14.73;;
59659;SDS011;45534;52.690;6.268;2023-02-13T00:50:52;30.38;;;16.48;;
59659;SDS011;45534;52.690;6.268;2023-02-13T00:53:18;26.85;;;14.38;;
59659;SDS011;45534;52.690;6.268;2023-02-13T00:55:45;31.63;;;16.83;;
59659;SDS011;45534;52.690;6.268;2023-02-13T00:58:11;27.92;;;13.35;;
59659;SDS011;45534;52.690;6.268;2023-02-13T01:00:37;24.77;;;12.60;;
59659;SDS011;45534;52.690;6.268;2023-02-13T01:03:03;26.13;;;12.93;;
59659;SDS011;45534;52.690;6.268;2023-02-13T01:05:29;27.27;;;12.90;;
59659;SDS011;45534;52.690;6.268;2023-02-13T01:07:55;34.75;;;20.35;;
59659;SDS011;45534;52.690;6.268;2023-02-13T01:10:21;34.00;;;16.25;;
59659;SDS011;45534;52.690;6.268;2023-02-13T01:12:46;32.67;;;16.80;;
59659;SDS011;45534;52.690;6.268;2023-02-13T01:15:12;25.48;;;14.13;;
59659;SDS011;45534;52.690;6.268;2023-02-13T01:17:38;24.08;;;12.93;;
59659;SDS011;45534;52.690;6.268;2023-02-13T01:20:05;24.52;;;15.13;;
59659;SDS011;45534;52.690;6.268;2023-02-13T01:22:32;27.30;;;14.70;;
59659;SDS011;45534;52.690;6.268;2023-02-13T01:24:58;27.85;;;16.13;;
59659;SDS011;45534;52.690;6.268;2023-02-13T01:27:23;27.58;;;12.75;;
59659;SDS011;45534;52.690;6.268;2023-02-13T01:29:49;34.85;;;17.52;;
59659;SDS011;45534;52.690;6.268;2023-02-13T01:32:15;32.35;;;14.73;;
59659;SDS011;45534;52.690;6.268;2023-02-13T01:34:41;17.98;;;9.73;;
59659;SDS011;45534;52.690;6.268;2023-02-13T01:37:06;27.48;;;16.25;;
59659;SDS011;45534;52.690;6.268;2023-02-13T01:39:32;25.70;;;14.30;;
59659;SDS011;45534;52.690;6.268;2023-02-13T01:41:57;26.75;;;12.90;;
59659;SDS011;45534;52.690;6.268;2023-02-13T01:50:16;24.65;;;14.35;;
59659;SDS011;45534;52.690;6.268;2023-02-13T01:53:11;29.58;;;15.18;;
59659;SDS011;45534;52.690;6.268;2023-02-13T01:55:51;26.20;;;14.88;;
59659;SDS011;45534;52.690;6.268;2023-02-13T01:58:24;27.13;;;13.77;;
59659;SDS011;45534;52.690;6.268;2023-02-13T02:00:53;27.48;;;13.95;;
59659;SDS011;45534;52.690;6.268;2023-02-13T02:03:24;30.55;;;15.60;;
59659;SDS011;45534;52.690;6.268;2023-02-13T02:05:54;23.67;;;11.27;;
59659;SDS011;45534;52.690;6.268;2023-02-13T02:08:22;29.48;;;14.60;;
59659;SDS011;45534;52.690;6.268;2023-02-13T02:10:48;25.33;;;12.40;;
59659;SDS011;45534;52.690;6.268;2023-02-13T02:13:16;24.35;;;12.10;;
59659;SDS011;45534;52.690;6.268;2023-02-13T02:15:43;21.77;;;11.10;;
59659;SDS011;45534;52.690;6.268;2023-02-13T02:18:17;21.73;;;12.45;;
59659;SDS011;45534;52.690;6.268;2023-02-13T02:32:16;40.45;;;17.58;;
59659;SDS011;45534;52.690;6.268;2023-02-13T02:37:47;17.80;;;9.63;;
59659;SDS011;45534;52.690;6.268;2023-02-13T02:48:24;26.90;;;12.50;;
59659;SDS011;45534;52.690;6.268;2023-02-13T02:54:26;24.90;;;12.27;;
59659;SDS011;45534;52.690;6.268;2023-02-13T02:57:15;24.17;;;12.13;;
59659;SDS011;45534;52.690;6.268;2023-02-13T02:59:51;23.25;;;11.75;;
59659;SDS011;45534;52.690;6.268;2023-02-13T03:02:36;24.42;;;11.90;;
59659;SDS011;45534;52.690;6.268;2023-02-13T03:05:26;21.25;;;10.88;;
59659;SDS011;45534;52.690;6.268;2023-02-13T03:08:13;24.38;;;12.20;;
59659;SDS011;45534;52.690;6.268;2023-02-13T03:10:39;28.13;;;13.85;;
59659;SDS011;45534;52.690;6.268;2023-02-13T03:13:43;24.88;;;14.23;;
59659;SDS011;45534;52.690;6.268;2023-02-13T03:16:16;22.90;;;14.07;;
59659;SDS011;45534;52.690;6.268;2023-02-13T03:19:03;20.02;;;10.57;;
59659;SDS011;45534;52.690;6.268;2023-02-13T03:21:52;21.40;;;12.25;;
59659;SDS011;45534;52.690;6.268;2023-02-13T03:36:03;24.35;;;13.48;;
59659;SDS011;45534;52.690;6.268;2023-02-13T03:39:24;26.27;;;12.05;;
59659;SDS011;45534;52.690;6.268;2023-02-13T03:41:59;35.53;;;16.10;;
59659;SDS011;45534;52.690;6.268;2023-02-13T03:44:39;23.98;;;14.88;;
59659;SDS011;45534;52.690;6.268;2023-02-13T03:47:09;17.30;;;9.50;;
59659;SDS011;45534;52.690;6.268;2023-02-13T03:49:43;18.98;;;10.43;;
59659;SDS011;45534;52.690;6.268;2023-02-13T03:54:57;22.35;;;11.68;;
59659;SDS011;45534;52.690;6.268;2023-02-13T03:57:59;23.65;;;13.48;;
59659;SDS011;45534;52.690;6.268;2023-02-13T04:00:50;28.27;;;10.65;;
59659;SDS011;45534;52.690;6.268;2023-02-13T04:03:23;23.33;;;12.20;;
59659;SDS011;45534;52.690;6.268;2023-02-13T04:06:07;23.73;;;10.10;;
59659;SDS011;45534;52.690;6.268;2023-02-13T04:08:36;26.08;;;12.88;;
59659;SDS011;45534;52.690;6.268;2023-02-13T04:11:10;17.85;;;9.35;;
59659;SDS011;45534;52.690;6.268;2023-02-13T04:13:42;19.10;;;11.27;;
59659;SDS011;45534;52.690;6.268;2023-02-13T04:16:14;21.20;;;10.40;;
59659;SDS011;45534;52.690;6.268;2023-02-13T04:19:07;26.58;;;13.40;;
59659;SDS011;45534;52.690;6.268;2023-02-13T04:21:35;19.30;;;11.55;;
59659;SDS011;45534;52.690;6.268;2023-02-13T04:24:02;27.80;;;13.45;;
59659;SDS011;45534;52.690;6.268;2023-02-13T04:26:32;22.45;;;14.50;;
59659;SDS011;45534;52.690;6.268;2023-02-13T04:29:06;32.50;;;12.38;;
59659;SDS011;45534;52.690;6.268;2023-02-13T04:31:32;25.52;;;12.75;;
59659;SDS011;45534;52.690;6.268;2023-02-13T04:33:58;23.58;;;13.02;;
59659;SDS011;45534;52.690;6.268;2023-02-13T04:36:24;23.30;;;10.85;;
59659;SDS011;45534;52.690;6.268;2023-02-13T04:38:50;16.77;;;9.95;;
59659;SDS011;45534;52.690;6.268;2023-02-13T04:41:16;29.05;;;11.57;;
59659;SDS011;45534;52.690;6.268;2023-02-13T04:43:42;23.42;;;12.52;;
59659;SDS011;45534;52.690;6.268;2023-02-13T04:46:08;16.23;;;8.70;;
59659;SDS011;45534;52.690;6.268;2023-02-13T04:48:33;20.63;;;10.35;;
59659;SDS011;45534;52.690;6.268;2023-02-13T04:50:59;22.48;;;11.48;;
59659;SDS011;45534;52.690;6.268;2023-02-13T04:53:25;25.20;;;13.10;;
59659;SDS011;45534;52.690;6.268;2023-02-13T04:55:53;17.63;;;9.80;;
59659;SDS011;45534;52.690;6.268;2023-02-13T04:58:19;25.38;;;13.70;;
59659;SDS011;45534;52.690;6.268;2023-02-13T05:00:45;23.23;;;14.93;;
59659;SDS011;45534;52.690;6.268;2023-02-13T05:03:11;26.67;;;12.70;;
59659;SDS011;45534;52.690;6.268;2023-02-13T05:05:38;20.35;;;11.98;;
59659;SDS011;45534;52.690;6.268;2023-02-13T05:08:05;23.63;;;10.80;;
59659;SDS011;45534;52.690;6.268;2023-02-13T05:10:32;22.55;;;11.05;;
59659;SDS011;45534;52.690;6.268;2023-02-13T05:12:58;26.73;;;14.55;;
59659;SDS011;45534;52.690;6.268;2023-02-13T05:15:24;24.40;;;11.95;;
59659;SDS011;45534;52.690;6.268;2023-02-13T05:17:50;24.10;;;12.27;;
59659;SDS011;45534;52.690;6.268;2023-02-13T05:20:16;18.08;;;10.57;;
59659;SDS011;45534;52.690;6.268;2023-02-13T05:25:31;22.17;;;10.50;;
59659;SDS011;45534;52.690;6.268;2023-02-13T05:27:57;20.92;;;11.45;;
59659;SDS011;45534;52.690;6.268;2023-02-13T05:30:23;26.10;;;12.32;;
59659;SDS011;45534;52.690;6.268;2023-02-13T05:32:49;23.58;;;12.65;;
59659;SDS011;45534;52.690;6.268;2023-02-13T05:35:16;23.83;;;11.05;;
59659;SDS011;45534;52.690;6.268;2023-02-13T05:37:43;22.70;;;11.00;;
59659;SDS011;45534;52.690;6.268;2023-02-13T05:40:09;16.98;;;9.90;;
59659;SDS011;45534;52.690;6.268;2023-02-13T05:42:37;23.00;;;9.43;;
59659;SDS011;45534;52.690;6.268;2023-02-13T05:45:03;22.98;;;11.63;;
59659;SDS011;45534;52.690;6.268;2023-02-13T05:47:29;29.25;;;14.77;;
59659;SDS011;45534;52.690;6.268;2023-02-13T05:49:55;22.25;;;11.38;;
59659;SDS011;45534;52.690;6.268;2023-02-13T05:52:20;22.35;;;11.10;;
59659;SDS011;45534;52.690;6.268;2023-02-13T05:54:46;26.35;;;12.55;;
59659;SDS011;45534;52.690;6.268;2023-02-13T05:57:12;21.95;;;12.10;;
59659;SDS011;45534;52.690;6.268;2023-02-13T05:59:37;16.48;;;10.00;;
59659;SDS011;45534;52.690;6.268;2023-02-13T06:02:03;21.35;;;12.18;;
59659;SDS011;45534;52.690;6.268;2023-02-13T06:04:29;16.58;;;10.32;;
59659;SDS011;45534;52.690;6.268;2023-02-13T06:06:55;13.52;;;8.88;;
59659;SDS011;45534;52.690;6.268;2023-02-13T06:09:20;19.95;;;8.63;;
59659;SDS011;45534;52.690;6.268;2023-02-13T06:11:46;38.38;;;12.07;;
59659;SDS011;45534;52.690;6.268;2023-02-13T06:14:12;19.42;;;12.38;;
59659;SDS011;45534;52.690;6.268;2023-02-13T06:16:38;20.40;;;9.55;;
59659;SDS011;45534;52.690;6.268;2023-02-13T06:19:04;19.58;;;9.35;;
59659;SDS011;45534;52.690;6.268;2023-02-13T06:21:30;22.95;;;10.77;;
59659;SDS011;45534;52.690;6.268;2023-02-13T06:23:57;20.20;;;10.65;;
59659;SDS011;45534;52.690;6.268;2023-02-13T06:26:23;31.45;;;14.63;;
59659;SDS011;45534;52.690;6.268;2023-02-13T06:28:49;20.25;;;11.63;;
59659;SDS011;45534;52.690;6.268;2023-02-13T06:31:14;20.92;;;10.38;;
59659;SDS011;45534;52.690;6.268;2023-02-13T06:33:40;20.55;;;10.35;;
59659;SDS011;45534;52.690;6.268;2023-02-13T06:36:06;18.63;;;9.90;;
59659;SDS011;45534;52.690;6.268;2023-02-13T06:38:33;19.95;;;10.48;;
59659;SDS011;45534;52.690;6.268;2023-02-13T06:41:01;22.35;;;10.70;;
59659;SDS011;45534;52.690;6.268;2023-02-13T06:43:28;19.42;;;10.93;;
59659;SDS011;45534;52.690;6.268;2023-02-13T06:45:54;17.85;;;11.00;;
59659;SDS011;45534;52.690;6.268;2023-02-13T06:48:19;18.25;;;10.32;;
59659;SDS011;45534;52.690;6.268;2023-02-13T06:50:45;22.05;;;10.10;;
59659;SDS011;45534;52.690;6.268;2023-02-13T06:53:11;28.30;;;13.63;;
59659;SDS011;45534;52.690;6.268;2023-02-13T06:55:36;21.10;;;10.35;;
59659;SDS011;45534;52.690;6.268;2023-02-13T06:58:05;23.70;;;11.40;;
59659;SDS011;45534;52.690;6.268;2023-02-13T07:00:31;22.67;;;11.90;;
59659;SDS011;45534;52.690;6.268;2023-02-13T07:03:00;22.02;;;9.82;;
59659;SDS011;45534;52.690;6.268;2023-02-13T07:05:28;18.88;;;8.82;;
59659;SDS011;45534;52.690;6.268;2023-02-13T07:07:54;27.15;;;11.65;;
59659;SDS011;45534;52.690;6.268;2023-02-13T07:10:19;26.30;;;14.13;;
59659;SDS011;45534;52.690;6.268;2023-02-13T07:12:45;19.15;;;8.60;;
59659;SDS011;45534;52.690;6.268;2023-02-13T07:15:11;27.52;;;12.13;;
59659;SDS011;45534;52.690;6.268;2023-02-13T07:17:36;20.77;;;9.93;;
59659;SDS011;45534;52.690;6.268;2023-02-13T07:20:02;26.52;;;10.35;;
59659;SDS011;45534;52.690;6.268;2023-02-13T07:22:30;18.58;;;10.10;;
59659;SDS011;45534;52.690;6.268;2023-02-13T07:24:57;23.33;;;12.77;;
59659;SDS011;45534;52.690;6.268;2023-02-13T07:27:24;23.60;;;12.05;;
59659;SDS011;45534;52.690;6.268;2023-02-13T07:29:50;28.13;;;13.60;;
59659;SDS011;45534;52.690;6.268;2023-02-13T07:32:15;18.83;;;10.77;;
59659;SDS011;45534;52.690;6.268;2023-02-13T07:34:41;18.23;;;9.80;;
59659;SDS011;45534;52.690;6.268;2023-02-13T07:37:07;22.33;;;10.20;;
59659;SDS011;45534;52.690;6.268;2023-02-13T07:39:32;20.02;;;11.02;;
59659;SDS011;45534;52.690;6.268;2023-02-13T07:41:58;24.13;;;12.65;;
59659;SDS011;45534;52.690;6.268;2023-02-13T07:44:24;25.40;;;12.77;;
59659;SDS011;45534;52.690;6.268;2023-02-13T07:46:49;24.50;;;13.65;;
59659;SDS011;45534;52.690;6.268;2023-02-13T07:49:15;26.23;;;13.07;;
59659;SDS011;45534;52.690;6.268;2023-02-13T07:51:41;24.85;;;11.07;;
59659;SDS011;45534;52.690;6.268;2023-02-13T07:54:06;25.65;;;15.00;;
59659;SDS011;45534;52.690;6.268;2023-02-13T07:56:32;31.30;;;15.15;;
59659;SDS011;45534;52.690;6.268;2023-02-13T07:58:58;27.92;;;13.68;;
59659;SDS011;45534;52.690;6.268;2023-02-13T08:01:23;26.45;;;12.80;;
59659;SDS011;45534;52.690;6.268;2023-02-13T08:03:49;28.58;;;10.77;;
59659;SDS011;45534;52.690;6.268;2023-02-13T08:06:15;21.20;;;9.25;;
59659;SDS011;45534;52.690;6.268;2023-02-13T08:08:42;26.10;;;11.00;;
59659;SDS011;45534;52.690;6.268;2023-02-13T08:11:11;23.90;;;11.18;;
59659;SDS011;45534;52.690;6.268;2023-02-13T08:14:14;23.95;;;11.07;;
59659;SDS011;45534;52.690;6.268;2023-02-13T08:16:39;21.42;;;10.52;;
59659;SDS011;45534;52.690;6.268;2023-02-13T08:19:05;21.40;;;12.15;;
59659;SDS011;45534;52.690;6.268;2023-02-13T08:21:31;23.25;;;11.70;;
59659;SDS011;45534;52.690;6.268;2023-02-13T08:23:56;16.88;;;10.23;;
59659;SDS011;45534;52.690;6.268;2023-02-13T08:26:22;21.50;;;10.55;;
59659;SDS011;45534;52.690;6.268;2023-02-13T08:28:48;16.55;;;10.60;;
59659;SDS011;45534;52.690;6.268;2023-02-13T08:31:14;18.42;;;11.27;;
59659;SDS011;45534;52.690;6.268;2023-02-13T08:33:40;22.05;;;10.13;;
59659;SDS011;45534;52.690;6.268;2023-02-13T08:36:06;21.02;;;10.20;;
59659;SDS011;45534;52.690;6.268;2023-02-13T08:38:32;26.88;;;12.57;;
59659;SDS011;45534;52.690;6.268;2023-02-13T08:40:58;21.90;;;9.05;;
59659;SDS011;45534;52.690;6.268;2023-02-13T08:43:23;27.42;;;10.10;;
59659;SDS011;45534;52.690;6.268;2023-02-13T08:45:49;27.15;;;12.38;;
59659;SDS011;45534;52.690;6.268;2023-02-13T08:48:15;28.17;;;13.75;;
59659;SDS011;45534;52.690;6.268;2023-02-13T08:50:41;22.73;;;9.32;;
59659;SDS011;45534;52.690;6.268;2023-02-13T08:53:07;26.27;;;12.25;;
59659;SDS011;45534;52.690;6.268;2023-02-13T08:55:33;21.35;;;10.43;;
59659;SDS011;45534;52.690;6.268;2023-02-13T08:57:59;22.35;;;11.18;;
59659;SDS011;45534;52.690;6.268;2023-02-13T09:00:26;20.52;;;10.00;;
59659;SDS011;45534;52.690;6.268;2023-02-13T09:02:52;24.13;;;14.15;;
59659;SDS011;45534;52.690;6.268;2023-02-13T09:05:17;23.90;;;12.25;;
59659;SDS011;45534;52.690;6.268;2023-02-13T09:07:43;20.80;;;11.55;;
59659;SDS011;45534;52.690;6.268;2023-02-13T09:10:09;22.50;;;10.00;;
59659;SDS011;45534;52.690;6.268;2023-02-13T09:12:35;30.05;;;14.20;;
59659;SDS011;45534;52.690;6.268;2023-02-13T09:15:01;26.38;;;12.63;;
59659;SDS011;45534;52.690;6.268;2023-02-13T09:17:27;25.83;;;11.88;;
59659;SDS011;45534;52.690;6.268;2023-02-13T09:19:52;21.70;;;11.30;;
59659;SDS011;45534;52.690;6.268;2023-02-13T09:22:18;21.65;;;11.25;;
59659;SDS011;45534;52.690;6.268;2023-02-13T09:24:44;30.48;;;13.05;;
59659;SDS011;45534;52.690;6.268;2023-02-13T09:27:09;24.13;;;13.13;;
59659;SDS011;45534;52.690;6.268;2023-02-13T09:29:35;21.95;;;12.45;;
59659;SDS011;45534;52.690;6.268;2023-02-13T09:32:01;21.15;;;11.98;;
59659;SDS011;45534;52.690;6.268;2023-02-13T09:34:28;27.02;;;13.68;;
59659;SDS011;45534;52.690;6.268;2023-02-13T09:36:54;29.98;;;13.40;;
59659;SDS011;45534;52.690;6.268;2023-02-13T09:39:19;20.83;;;13.68;;
59659;SDS011;45534;52.690;6.268;2023-02-13T09:41:46;27.60;;;12.57;;
59659;SDS011;45534;52.690;6.268;2023-02-13T09:49:46;25.40;;;13.82;;
59659;SDS011;45534;52.690;6.268;2023-02-13T09:52:15;16.38;;;10.75;;
59659;SDS011;45534;52.690;6.268;2023-02-13T09:54:40;19.15;;;9.88;;
59659;SDS011;45534;52.690;6.268;2023-02-13T10:02:40;24.80;;;15.52;;
59659;SDS011;45534;52.690;6.268;2023-02-13T10:16:26;29.60;;;14.52;;
59659;SDS011;45534;52.690;6.268;2023-02-13T10:21:39;27.88;;;13.38;;
59659;SDS011;45534;52.690;6.268;2023-02-13T10:24:25;23.58;;;12.32;;
59659;SDS011;45534;52.690;6.268;2023-02-13T10:29:47;26.98;;;16.23;;
59659;SDS011;45534;52.690;6.268;2023-02-13T10:32:44;27.35;;;18.60;;
59659;SDS011;45534;52.690;6.268;2023-02-13T10:35:59;28.67;;;15.32;;
59659;SDS011;45534;52.690;6.268;2023-02-13T10:38:26;29.00;;;14.52;;
59659;SDS011;45534;52.690;6.268;2023-02-13T10:43:46;28.23;;;15.75;;
59659;SDS011;45534;52.690;6.268;2023-02-13T10:52:10;29.67;;;19.15;;
59659;SDS011;45534;52.690;6.268;2023-02-13T11:02:22;27.83;;;15.18;;
59659;SDS011;45534;52.690;6.268;2023-02-13T11:04:58;27.52;;;15.93;;
59659;SDS011;45534;52.690;6.268;2023-02-13T11:07:26;24.48;;;15.77;;
59659;SDS011;45534;52.690;6.268;2023-02-13T11:09:56;36.25;;;21.25;;
59659;SDS011;45534;52.690;6.268;2023-02-13T11:17:21;24.45;;;15.05;;
59659;SDS011;45534;52.690;6.268;2023-02-13T11:19:53;27.25;;;16.08;;
59659;SDS011;45534;52.690;6.268;2023-02-13T11:22:31;28.50;;;16.48;;
59659;SDS011;45534;52.690;6.268;2023-02-13T11:25:06;24.45;;;13.48;;
59659;SDS011;45534;52.690;6.268;2023-02-13T11:27:44;29.73;;;15.80;;
59659;SDS011;45534;52.690;6.268;2023-02-13T11:30:29;29.25;;;16.80;;
59659;SDS011;45534;52.690;6.268;2023-02-13T11:35:27;27.50;;;14.27;;
59659;SDS011;45534;52.690;6.268;2023-02-13T11:38:40;32.88;;;15.82;;
59659;SDS011;45534;52.690;6.268;2023-02-13T11:40:43;27.80;;;17.02;;
59659;SDS011;45534;52.690;6.268;2023-02-13T11:46:25;34.92;;;24.60;;
59659;SDS011;45534;52.690;6.268;2023-02-13T11:49:11;30.42;;;16.73;;
59659;SDS011;45534;52.690;6.268;2023-02-13T11:57:00;28.42;;;19.35;;
59659;SDS011;45534;52.690;6.268;2023-02-13T11:59:40;28.88;;;17.95;;
59659;SDS011;45534;52.690;6.268;2023-02-13T12:02:21;33.95;;;21.45;;
59659;SDS011;45534;52.690;6.268;2023-02-13T12:07:50;31.27;;;20.67;;
59659;SDS011;45534;52.690;6.268;2023-02-13T12:10:35;27.48;;;18.23;;
59659;SDS011;45534;52.690;6.268;2023-02-13T12:13:10;30.67;;;21.75;;
59659;SDS011;45534;52.690;6.268;2023-02-13T12:15:39;30.38;;;18.00;;
59659;SDS011;45534;52.690;6.268;2023-02-13T12:20:39;27.20;;;14.35;;
59659;SDS011;45534;52.690;6.268;2023-02-13T12:23:26;32.55;;;20.35;;
59659;SDS011;45534;52.690;6.268;2023-02-13T12:40:00;32.70;;;18.45;;
59659;SDS011;45534;52.690;6.268;2023-02-13T12:42:50;30.05;;;18.23;;
59659;SDS011;45534;52.690;6.268;2023-02-13T12:45:30;30.50;;;19.48;;
59659;SDS011;45534;52.690;6.268;2023-02-13T13:15:31;30.55;;;21.08;;
59659;SDS011;45534;52.690;6.268;2023-02-13T13:23:30;26.42;;;16.67;;
59659;SDS011;45534;52.690;6.268;2023-02-13T13:26:13;29.95;;;17.48;;
59659;SDS011;45534;52.690;6.268;2023-02-13T13:28:53;37.67;;;17.63;;
59659;SDS011;45534;52.690;6.268;2023-02-13T13:31:22;30.77;;;18.13;;
59659;SDS011;45534;52.690;6.268;2023-02-13T13:33:50;33.10;;;20.02;;
59659;SDS011;45534;52.690;6.268;2023-02-13T13:41:58;20.95;;;13.82;;
59659;SDS011;45534;52.690;6.268;2023-02-13T13:50:20;16.77;;;11.07;;
59659;SDS011;45534;52.690;6.268;2023-02-13T13:53:04;27.88;;;18.67;;
59659;SDS011;45534;52.690;6.268;2023-02-13T14:06:20;26.65;;;18.48;;
59659;SDS011;45534;52.690;6.268;2023-02-13T14:08:59;22.92;;;14.77;;
59659;SDS011;45534;52.690;6.268;2023-02-13T14:14:00;26.10;;;17.88;;
59659;SDS011;45534;52.690;6.268;2023-02-13T14:24:56;25.88;;;18.15;;
59659;SDS011;45534;52.690;6.268;2023-02-13T14:27:31;29.05;;;20.08;;
59659;SDS011;45534;52.690;6.268;2023-02-13T14:30:45;28.05;;;18.77;;
59659;SDS011;45534;52.690;6.268;2023-02-13T14:32:54;25.63;;;19.15;;
59659;SDS011;45534;52.690;6.268;2023-02-13T14:35:25;26.77;;;20.92;;
59659;SDS011;45534;52.690;6.268;2023-02-13T14:37:54;26.77;;;20.33;;
59659;SDS011;45534;52.690;6.268;2023-02-13T14:40:29;28.48;;;21.05;;
59659;SDS011;45534;52.690;6.268;2023-02-13T14:49:22;29.33;;;21.42;;
59659;SDS011;45534;52.690;6.268;2023-02-13T14:51:49;29.88;;;18.80;;
59659;SDS011;45534;52.690;6.268;2023-02-13T14:56:50;27.90;;;21.17;;
59659;SDS011;45534;52.690;6.268;2023-02-13T14:59:18;28.02;;;21.05;;
59659;SDS011;45534;52.690;6.268;2023-02-13T15:01:58;28.58;;;21.52;;
59659;SDS011;45534;52.690;6.268;2023-02-13T15:04:38;27.95;;;19.75;;
59659;SDS011;45534;52.690;6.268;2023-02-13T15:07:11;58.65;;;53.30;;
59659;SDS011;45534;52.690;6.268;2023-02-13T15:09:59;29.13;;;20.55;;
59659;SDS011;45534;52.690;6.268;2023-02-13T15:12:30;29.55;;;21.15;;
59659;SDS011;45534;52.690;6.268;2023-02-13T15:14:59;31.95;;;19.70;;
59659;SDS011;45534;52.690;6.268;2023-02-13T15:17:29;29.95;;;20.27;;
59659;SDS011;45534;52.690;6.268;2023-02-13T15:22:38;26.83;;;19.90;;
59659;SDS011;45534;52.690;6.268;2023-02-13T15:25:19;25.88;;;19.20;;
59659;SDS011;45534;52.690;6.268;2023-02-13T15:28:07;26.52;;;18.80;;
59659;SDS011;45534;52.690;6.268;2023-02-13T15:35:45;30.00;;;21.38;;
59659;SDS011;45534;52.690;6.268;2023-02-13T15:38:18;33.88;;;20.45;;
59659;SDS011;45534;52.690;6.268;2023-02-13T15:40:49;32.42;;;24.02;;
59659;SDS011;45534;52.690;6.268;2023-02-13T15:43:25;29.85;;;21.50;;
59659;SDS011;45534;52.690;6.268;2023-02-13T15:45:55;35.97;;;28.10;;
59659;SDS011;45534;52.690;6.268;2023-02-13T15:48:25;30.70;;;21.17;;
59659;SDS011;45534;52.690;6.268;2023-02-13T15:50:52;44.65;;;25.65;;
59659;SDS011;45534;52.690;6.268;2023-02-13T15:53:18;31.33;;;20.17;;
59659;SDS011;45534;52.690;6.268;2023-02-13T15:55:57;35.30;;;22.00;;
59659;SDS011;45534;52.690;6.268;2023-02-13T15:58:29;32.53;;;21.35;;
59659;SDS011;45534;52.690;6.268;2023-02-13T16:01:04;40.75;;;24.70;;
59659;SDS011;45534;52.690;6.268;2023-02-13T16:03:32;32.22;;;21.35;;
59659;SDS011;45534;52.690;6.268;2023-02-13T16:05:58;33.33;;;22.00;;
59659;SDS011;45534;52.690;6.268;2023-02-13T16:08:26;33.63;;;22.83;;
59659;SDS011;45534;52.690;6.268;2023-02-13T16:13:54;34.03;;;24.00;;
59659;SDS011;45534;52.690;6.268;2023-02-13T16:16:28;35.88;;;24.52;;
59659;SDS011;45534;52.690;6.268;2023-02-13T16:18:57;33.88;;;22.77;;
59659;SDS011;45534;52.690;6.268;2023-02-13T16:21:24;35.13;;;23.73;;
59659;SDS011;45534;52.690;6.268;2023-02-13T16:23:55;30.65;;;22.92;;
59659;SDS011;45534;52.690;6.268;2023-02-13T16:26:25;32.25;;;24.38;;
59659;SDS011;45534;52.690;6.268;2023-02-13T16:28:51;32.15;;;21.65;;
59659;SDS011;45534;52.690;6.268;2023-02-13T16:31:17;32.40;;;19.08;;
59659;SDS011;45534;52.690;6.268;2023-02-13T16:33:43;34.75;;;22.10;;
59659;SDS011;45534;52.690;6.268;2023-02-13T16:43:51;34.53;;;22.95;;
59659;SDS011;45534;52.690;6.268;2023-02-13T16:59:25;32.30;;;19.67;;
59659;SDS011;45534;52.690;6.268;2023-02-13T17:04:38;33.45;;;20.38;;
59659;SDS011;45534;52.690;6.268;2023-02-13T17:07:10;32.08;;;21.98;;
59659;SDS011;45534;52.690;6.268;2023-02-13T17:09:37;32.20;;;21.13;;
59659;SDS011;45534;52.690;6.268;2023-02-13T17:12:03;28.70;;;19.70;;
59659;SDS011;45534;52.690;6.268;2023-02-13T17:17:00;35.08;;;22.63;;
59659;SDS011;45534;52.690;6.268;2023-02-13T17:19:26;32.60;;;20.70;;
59659;SDS011;45534;52.690;6.268;2023-02-13T17:21:52;29.08;;;19.88;;
59659;SDS011;45534;52.690;6.268;2023-02-13T17:24:19;33.25;;;20.88;;
59659;SDS011;45534;52.690;6.268;2023-02-13T17:26:45;24.17;;;15.90;;
59659;SDS011;45534;52.690;6.268;2023-02-13T17:29:11;36.63;;;21.77;;
59659;SDS011;45534;52.690;6.268;2023-02-13T17:31:36;34.35;;;21.02;;
59659;SDS011;45534;52.690;6.268;2023-02-13T17:34:02;34.72;;;20.25;;
59659;SDS011;45534;52.690;6.268;2023-02-13T17:36:29;30.48;;;20.00;;
59659;SDS011;45534;52.690;6.268;2023-02-13T17:38:54;30.58;;;18.10;;
59659;SDS011;45534;52.690;6.268;2023-02-13T17:41:20;36.53;;;21.75;;
59659;SDS011;45534;52.690;6.268;2023-02-13T17:43:46;33.00;;;20.73;;
59659;SDS011;45534;52.690;6.268;2023-02-13T17:46:12;39.85;;;17.52;;
59659;SDS011;45534;52.690;6.268;2023-02-13T17:48:39;28.45;;;15.35;;
59659;SDS011;45534;52.690;6.268;2023-02-13T17:51:04;33.42;;;17.42;;
59659;SDS011;45534;52.690;6.268;2023-02-13T17:53:30;28.25;;;16.42;;
59659;SDS011;45534;52.690;6.268;2023-02-13T17:55:56;32.92;;;15.98;;
59659;SDS011;45534;52.690;6.268;2023-02-13T17:58:23;25.17;;;16.38;;
59659;SDS011;45534;52.690;6.268;2023-02-13T18:00:49;26.80;;;13.95;;
59659;SDS011;45534;52.690;6.268;2023-02-13T18:03:15;26.08;;;15.00;;
59659;SDS011;45534;52.690;6.268;2023-02-13T18:05:40;23.73;;;13.90;;
59659;SDS011;45534;52.690;6.268;2023-02-13T18:08:06;27.38;;;15.55;;
59659;SDS011;45534;52.690;6.268;2023-02-13T18:10:33;29.27;;;14.18;;
59659;SDS011;45534;52.690;6.268;2023-02-13T18:13:01;27.75;;;11.00;;
59659;SDS011;45534;52.690;6.268;2023-02-13T18:15:34;27.13;;;14.95;;
59659;SDS011;45534;52.690;6.268;2023-02-13T18:18:05;23.35;;;12.27;;
59659;SDS011;45534;52.690;6.268;2023-02-13T18:20:31;27.15;;;14.73;;
59659;SDS011;45534;52.690;6.268;2023-02-13T18:22:57;28.60;;;16.27;;
59659;SDS011;45534;52.690;6.268;2023-02-13T18:25:22;27.58;;;14.45;;
59659;SDS011;45534;52.690;6.268;2023-02-13T18:27:48;24.70;;;12.20;;
59659;SDS011;45534;52.690;6.268;2023-02-13T18:30:16;27.70;;;16.65;;
59659;SDS011;45534;52.690;6.268;2023-02-13T18:32:44;28.77;;;17.15;;
59659;SDS011;45534;52.690;6.268;2023-02-13T18:35:14;30.13;;;16.00;;
59659;SDS011;45534;52.690;6.268;2023-02-13T18:37:41;23.67;;;15.15;;
59659;SDS011;45534;52.690;6.268;2023-02-13T18:40:07;27.40;;;14.23;;